Time;durP1;ratioP1;P1;durP2;ratioP2;P2;SDS_P1;SDS_P2;PMS_P1;PMS_P2;Temp;Humidity;BMP_temperature;BMP_pressure;BME280_temperature;BME280_humidity;BME280_pressure;Samples;Min_cycle;Max_cycle;Signal;HPM_P1;HPM_P2
2022/07/06 00:01:57;;;;;;;8.15;2.13;;;14.00;99.90;;;;;;6236686;23;20324;-66
2022/07/06 00:04:23;;;;;;;6.93;1.40;;;14.00;99.90;;;;;;6238418;23;20031;-66
2022/07/06 00:06:49;;;;;;;6.47;1.00;;;14.00;99.90;;;;;;6238711;23;20042;-67
2022/07/06 00:09:15;;;;;;;6.95;1.30;;;14.00;99.90;;;;;;6239192;23;20103;-67
2022/07/06 00:11:41;;;;;;;3.28;1.00;;;14.00;99.90;;;;;;6238838;23;20439;-67
2022/07/06 00:14:07;;;;;;;7.10;1.40;;;14.00;99.90;;;;;;6262844;22;20019;-66
2022/07/06 00:16:33;;;;;;;3.28;0.88;;;13.90;99.90;;;;;;6239958;22;20037;-66
2022/07/06 00:18:59;;;;;;;4.15;1.50;;;14.00;99.90;;;;;;6211095;23;20110;-67
2022/07/06 00:21:24;;;;;;;4.63;1.00;;;14.00;99.90;;;;;;6240104;23;20015;-66
2022/07/06 00:23:51;;;;;;;11.32;1.30;;;13.90;99.90;;;;;;6239214;22;20076;-66
2022/07/06 00:26:18;;;;;;;8.65;1.10;;;13.90;99.90;;;;;;6239141;23;20027;-67
2022/07/06 00:28:43;;;;;;;2.05;0.90;;;13.90;99.90;;;;;;6238539;23;20520;-67
2022/07/06 00:31:09;;;;;;;4.65;0.98;;;14.00;99.90;;;;;;6262984;22;20016;-67
2022/07/06 00:33:35;;;;;;;4.75;1.02;;;13.90;99.90;;;;;;6237494;23;20468;-66
2022/07/06 00:36:01;;;;;;;3.42;0.98;;;13.90;99.90;;;;;;6236837;23;20013;-66
2022/07/06 00:38:27;;;;;;;4.32;0.90;;;13.90;99.90;;;;;;6240030;23;20322;-67
2022/07/06 00:40:52;;;;;;;5.70;1.25;;;13.80;99.90;;;;;;6210972;23;20390;-67
2022/07/06 00:43:18;;;;;;;6.18;1.13;;;13.80;99.90;;;;;;6237798;23;20012;-67
2022/07/06 00:45:44;;;;;;;4.28;1.02;;;13.70;99.90;;;;;;6211237;23;20471;-66
2022/07/06 00:48:10;;;;;;;6.20;1.10;;;13.70;99.90;;;;;;6238849;22;20343;-66
2022/07/06 00:50:36;;;;;;;1.77;0.65;;;13.70;99.90;;;;;;6238207;23;20016;-67
2022/07/06 00:53:05;;;;;;;5.03;1.20;;;13.70;99.90;;;;;;6238629;23;20028;-67
2022/07/06 00:55:33;;;;;;;4.65;0.77;;;13.60;99.90;;;;;;6239127;23;20016;-67
2022/07/06 00:58:02;;;;;;;4.80;0.88;;;13.60;99.90;;;;;;6238390;23;20052;-66
2022/07/06 01:00:28;;;;;;;2.95;0.70;;;13.60;99.90;;;;;;6239437;23;20486;-67
2022/07/06 01:02:54;;;;;;;4.63;0.90;;;13.60;99.90;;;;;;6237812;23;20020;-67
2022/07/06 01:05:20;;;;;;;6.03;1.10;;;13.60;99.90;;;;;;6238951;23;20366;-66
2022/07/06 01:07:48;;;;;;;5.72;1.10;;;13.70;99.90;;;;;;6238524;23;20104;-67
2022/07/06 01:10:16;;;;;;;4.80;0.95;;;13.60;99.90;;;;;;6238740;22;20020;-66
2022/07/06 01:12:44;;;;;;;9.25;1.05;;;13.70;99.90;;;;;;6239003;23;20027;-66
2022/07/06 01:15:13;;;;;;;5.88;1.00;;;13.70;99.90;;;;;;6237915;23;20027;-67
2022/07/06 01:17:40;;;;;;;4.32;0.88;;;13.70;99.90;;;;;;6262904;22;20020;-66
2022/07/06 01:20:16;;;;;;;4.93;0.90;;;13.70;99.90;;;;;;6235995;23;20083;-66
2022/07/06 01:22:46;;;;;;;6.93;1.10;;;13.70;99.90;;;;;;6237067;23;20024;-66
2022/07/06 01:25:12;;;;;;;8.38;1.27;;;13.70;99.90;;;;;;6235815;23;20023;-67
2022/07/06 01:27:39;;;;;;;7.03;1.00;;;13.70;99.90;;;;;;6238867;23;20347;-66
2022/07/06 01:30:07;;;;;;;3.80;0.85;;;13.70;99.90;;;;;;6237134;23;20016;-66
2022/07/06 01:32:33;;;;;;;4.95;0.93;;;13.70;99.90;;;;;;6236240;23;20131;-67
2022/07/06 01:35:00;;;;;;;2.10;0.80;;;13.70;99.90;;;;;;6239218;22;20459;-66
2022/07/06 01:37:25;;;;;;;7.38;1.17;;;13.70;99.90;;;;;;6237296;23;20023;-67
2022/07/06 01:39:51;;;;;;;8.25;1.10;;;13.70;99.90;;;;;;6237692;23;20024;-66
2022/07/06 01:42:17;;;;;;;4.55;1.45;;;13.70;99.90;;;;;;6237346;23;20008;-66
2022/07/06 01:44:44;;;;;;;8.00;1.42;;;13.70;99.90;;;;;;6239003;23;20016;-66
2022/07/06 01:47:10;;;;;;;10.35;1.75;;;13.70;99.90;;;;;;6238547;23;20013;-66
2022/07/06 01:49:36;;;;;;;5.65;1.80;;;13.70;99.90;;;;;;6237502;23;20469;-66
2022/07/06 01:52:02;;;;;;;6.38;1.60;;;13.70;99.90;;;;;;6239113;23;20024;-66
2022/07/06 01:54:28;;;;;;;3.83;1.25;;;13.70;99.90;;;;;;6237599;23;20019;-67
2022/07/06 01:56:54;;;;;;;8.68;1.17;;;13.70;99.90;;;;;;6238804;23;20447;-66
2022/07/06 01:59:20;;;;;;;8.82;1.20;;;13.70;99.90;;;;;;6237373;23;20121;-66
2022/07/06 02:01:45;;;;;;;5.55;0.90;;;13.70;99.90;;;;;;6238822;23;20344;-66
2022/07/06 02:04:11;;;;;;;5.20;1.52;;;13.70;99.90;;;;;;6237708;23;20447;-66
2022/07/06 02:06:37;;;;;;;17.70;1.20;;;13.60;99.90;;;;;;6238356;23;20095;-66
2022/07/06 02:09:03;;;;;;;4.28;0.75;;;13.60;99.90;;;;;;6238548;23;20450;-66
2022/07/06 02:11:29;;;;;;;5.75;1.00;;;13.70;99.90;;;;;;6234943;23;20518;-66
2022/07/06 02:13:54;;;;;;;5.50;1.20;;;13.60;99.90;;;;;;6237342;22;20063;-66
2022/07/06 02:16:20;;;;;;;5.25;1.15;;;13.60;99.90;;;;;;6236636;23;20099;-66
2022/07/06 02:18:46;;;;;;;4.65;1.55;;;13.60;99.90;;;;;;6238775;23;20417;-66
2022/07/06 02:21:12;;;;;;;4.93;1.00;;;13.60;99.90;;;;;;6237484;23;20462;-67
2022/07/06 02:23:37;;;;;;;5.00;1.20;;;13.60;99.90;;;;;;6238507;23;20347;-67
2022/07/06 02:26:04;;;;;;;2.20;0.88;;;13.60;99.90;;;;;;6238870;23;20031;-66
2022/07/06 02:28:30;;;;;;;9.85;0.95;;;13.60;99.90;;;;;;6237148;23;20129;-67
2022/07/06 02:30:55;;;;;;;7.63;2.38;;;13.60;99.90;;;;;;6236964;23;20441;-66
2022/07/06 02:33:21;;;;;;;5.28;1.25;;;13.60;99.90;;;;;;6235217;23;20028;-66
2022/07/06 02:35:47;;;;;;;6.18;0.98;;;13.60;99.90;;;;;;6236933;23;20028;-67
2022/07/06 02:38:13;;;;;;;2.45;1.15;;;13.50;99.90;;;;;;6236697;23;20020;-66
2022/07/06 02:40:39;;;;;;;6.28;1.05;;;13.50;99.90;;;;;;6236912;23;20020;-66
2022/07/06 02:43:05;;;;;;;7.38;1.58;;;13.50;99.90;;;;;;6235903;23;20528;-66
2022/07/06 02:45:31;;;;;;;8.05;1.75;;;13.40;99.90;;;;;;6236322;23;20016;-67
2022/07/06 02:47:57;;;;;;;5.95;1.67;;;13.30;99.90;;;;;;6238422;23;20450;-66
2022/07/06 02:50:25;;;;;;;12.05;5.90;;;13.30;99.90;;;;;;6235149;23;20024;-67
2022/07/06 02:52:50;;;;;;;14.50;6.30;;;13.30;99.90;;;;;;6236811;23;20332;-67
2022/07/06 02:55:17;;;;;;;13.75;7.50;;;13.20;99.90;;;;;;6236944;22;20127;-67
2022/07/06 02:57:43;;;;;;;11.65;6.57;;;13.20;99.90;;;;;;6238352;22;20514;-66
2022/07/06 03:00:09;;;;;;;10.50;4.55;;;13.20;99.90;;;;;;6237258;23;20055;-67
2022/07/06 03:02:38;;;;;;;10.05;2.83;;;13.20;99.90;;;;;;6238198;23;20359;-67
2022/07/06 03:05:04;;;;;;;5.82;1.80;;;13.10;99.90;;;;;;6236109;23;20021;-66
2022/07/06 03:07:30;;;;;;;8.23;2.35;;;13.10;99.90;;;;;;6236693;22;20024;-67
2022/07/06 03:09:56;;;;;;;6.68;1.70;;;13.20;99.90;;;;;;6238360;23;20113;-66
2022/07/06 03:12:21;;;;;;;4.13;1.17;;;13.20;99.90;;;;;;6209499;23;20099;-67
2022/07/06 03:14:47;;;;;;;7.57;1.90;;;13.20;99.90;;;;;;6236534;23;20494;-67
2022/07/06 03:17:13;;;;;;;8.23;1.50;;;13.20;99.90;;;;;;6236538;23;20024;-67
2022/07/06 03:19:39;;;;;;;9.48;2.70;;;13.20;99.90;;;;;;6236616;23;20020;-67
2022/07/06 03:22:04;;;;;;;7.70;2.72;;;13.20;99.90;;;;;;6238707;23;20027;-67
2022/07/06 03:24:30;;;;;;;7.68;3.20;;;13.10;99.90;;;;;;6239312;23;20017;-67
2022/07/06 03:26:56;;;;;;;10.18;2.30;;;13.10;99.90;;;;;;6240692;23;20016;-67
2022/07/06 03:29:22;;;;;;;6.28;3.35;;;13.10;99.90;;;;;;6238598;23;20071;-67
2022/07/06 03:31:48;;;;;;;15.43;3.90;;;13.10;99.90;;;;;;6240446;23;20024;-67
2022/07/06 03:34:13;;;;;;;8.13;2.88;;;13.00;99.90;;;;;;6238436;22;20030;-66
2022/07/06 03:36:39;;;;;;;6.65;2.88;;;13.00;99.90;;;;;;6239992;23;20012;-67
2022/07/06 03:39:06;;;;;;;7.95;3.25;;;13.00;99.90;;;;;;6239262;23;20020;-67
2022/07/06 03:41:32;;;;;;;7.93;2.97;;;13.00;99.90;;;;;;6239690;23;20028;-66
2022/07/06 03:43:58;;;;;;;5.45;1.60;;;12.90;99.90;;;;;;6240072;23;20023;-67
2022/07/06 03:46:24;;;;;;;5.68;1.33;;;12.90;99.90;;;;;;6211241;23;20025;-66
2022/07/06 03:48:50;;;;;;;4.22;0.80;;;12.90;99.90;;;;;;6240140;23;20027;-67
2022/07/06 03:51:16;;;;;;;5.45;0.93;;;12.80;99.90;;;;;;6238593;22;20429;-67
2022/07/06 03:53:41;;;;;;;6.82;1.05;;;12.80;99.90;;;;;;6238398;23;20028;-66
2022/07/06 03:58:51;;;;;;;3.75;0.95;;;12.80;99.90;;;;;;6239683;23;20024;-66
2022/07/06 04:01:17;;;;;;;5.05;1.02;;;12.80;99.90;;;;;;6239478;23;20018;-66
2022/07/06 04:03:44;;;;;;;3.22;0.93;;;12.70;99.90;;;;;;6238924;23;20023;-67
2022/07/06 04:06:10;;;;;;;3.60;1.05;;;12.70;99.90;;;;;;6238506;23;20020;-67
2022/07/06 04:08:36;;;;;;;8.68;1.15;;;12.80;99.90;;;;;;6238111;23;20675;-67
2022/07/06 04:11:02;;;;;;;9.60;1.50;;;12.80;99.90;;;;;;6263971;22;20035;-67
2022/07/06 04:13:28;;;;;;;6.97;1.08;;;12.80;99.90;;;;;;6236580;23;20027;-67
2022/07/06 04:15:53;;;;;;;6.10;0.90;;;12.80;99.90;;;;;;6240046;23;20034;-67
2022/07/06 04:18:19;;;;;;;4.47;0.90;;;12.80;99.90;;;;;;6237271;23;20024;-67
2022/07/06 04:20:45;;;;;;;8.35;1.00;;;12.80;99.90;;;;;;6237840;23;20439;-66
2022/07/06 04:23:11;;;;;;;4.68;1.00;;;12.80;99.90;;;;;;6239964;23;20028;-67
2022/07/06 04:25:36;;;;;;;12.85;1.42;;;12.90;99.90;;;;;;6238415;23;20327;-67
2022/07/06 04:28:02;;;;;;;2.05;0.88;;;12.90;99.90;;;;;;6238056;23;20055;-66
2022/07/06 04:30:28;;;;;;;5.80;1.20;;;12.90;99.90;;;;;;6237773;23;20077;-67
2022/07/06 04:32:55;;;;;;;4.88;1.15;;;12.90;99.90;;;;;;6237996;23;20343;-67
2022/07/06 04:35:21;;;;;;;12.25;1.30;;;13.00;99.90;;;;;;6238053;23;20020;-67
2022/07/06 04:37:47;;;;;;;8.23;1.05;;;13.00;99.90;;;;;;6239627;23;20441;-67
2022/07/06 04:40:13;;;;;;;8.43;1.10;;;13.10;99.90;;;;;;6239871;23;20335;-67
2022/07/06 04:42:39;;;;;;;8.20;0.98;;;13.10;99.90;;;;;;6238200;23;20437;-67
2022/07/06 04:45:06;;;;;;;2.10;0.60;;;13.10;99.90;;;;;;6239278;23;20340;-67
2022/07/06 04:47:32;;;;;;;4.65;0.90;;;13.20;99.90;;;;;;6237753;23;20020;-66
2022/07/06 04:49:57;;;;;;;5.53;0.90;;;13.20;99.90;;;;;;6212217;23;20073;-66
2022/07/06 04:52:23;;;;;;;4.20;0.60;;;13.20;99.90;;;;;;6237966;23;20031;-67
2022/07/06 04:54:49;;;;;;;2.10;0.75;;;13.20;99.90;;;;;;6239585;23;20427;-66
2022/07/06 04:57:15;;;;;;;4.45;1.17;;;13.30;99.90;;;;;;6212487;23;20532;-66
2022/07/06 04:59:40;;;;;;;5.75;0.85;;;13.30;99.90;;;;;;6261656;22;20020;-67
2022/07/06 05:02:06;;;;;;;5.47;1.13;;;13.30;99.90;;;;;;6239116;23;20048;-66
2022/07/06 05:04:32;;;;;;;4.20;0.80;;;13.30;99.90;;;;;;6235820;23;20452;-67
2022/07/06 05:06:58;;;;;;;8.35;1.13;;;13.40;99.90;;;;;;6239164;23;20012;-67
2022/07/06 05:09:24;;;;;;;4.38;1.08;;;13.40;99.90;;;;;;6235838;23;20027;-67
2022/07/06 05:11:50;;;;;;;7.95;1.42;;;13.40;99.90;;;;;;6237741;23;20028;-67
2022/07/06 05:14:16;;;;;;;6.95;0.98;;;13.40;99.90;;;;;;6236299;23;20028;-66
2022/07/06 05:16:41;;;;;;;3.80;1.50;;;13.40;99.90;;;;;;6237136;23;20421;-66
2022/07/06 05:19:07;;;;;;;3.22;1.27;;;13.40;99.90;;;;;;6239351;23;20079;-67
2022/07/06 05:21:33;;;;;;;9.35;1.20;;;13.50;99.90;;;;;;6237482;23;20024;-66
2022/07/06 05:23:58;;;;;;;8.85;1.55;;;13.50;99.90;;;;;;6239249;23;20012;-66
2022/07/06 05:26:24;;;;;;;3.83;0.70;;;13.60;99.90;;;;;;6261258;22;20063;-66
2022/07/06 05:28:50;;;;;;;3.08;0.73;;;13.60;99.90;;;;;;6239564;23;20016;-66
2022/07/06 05:31:16;;;;;;;4.13;1.00;;;13.70;99.90;;;;;;6235873;23;20050;-66
2022/07/06 05:33:42;;;;;;;3.13;0.60;;;13.70;99.90;;;;;;6261935;22;20497;-66
2022/07/06 05:36:08;;;;;;;5.47;1.02;;;13.70;99.90;;;;;;6238418;23;20544;-66
2022/07/06 05:38:34;;;;;;;4.43;1.08;;;13.70;99.90;;;;;;6238124;23;20016;-66
2022/07/06 05:40:59;;;;;;;2.38;0.75;;;13.80;99.90;;;;;;6238615;23;20012;-67
2022/07/06 05:43:25;;;;;;;3.80;1.13;;;13.80;99.90;;;;;;6235943;23;20360;-67
2022/07/06 05:45:51;;;;;;;4.28;0.90;;;13.80;99.90;;;;;;6211473;23;20091;-66
2022/07/06 05:51:01;;;;;;;6.32;0.98;;;14.00;99.90;;;;;;6238964;23;20023;-66
2022/07/06 05:53:27;;;;;;;3.00;0.68;;;14.10;99.90;;;;;;6237674;22;20023;-66
2022/07/06 05:55:53;;;;;;;3.80;0.77;;;14.10;99.90;;;;;;6235973;23;20020;-67
2022/07/06 05:58:19;;;;;;;4.10;1.05;;;14.20;99.90;;;;;;6236881;23;20096;-66
2022/07/06 06:00:45;;;;;;;4.93;0.77;;;14.30;99.90;;;;;;6235714;23;20016;-67
2022/07/06 06:03:11;;;;;;;4.70;0.77;;;14.30;99.90;;;;;;6238583;23;20443;-66
2022/07/06 06:05:37;;;;;;;8.32;0.77;;;14.30;99.90;;;;;;6236804;22;20027;-68
2022/07/06 06:08:03;;;;;;;0.98;0.50;;;14.40;99.90;;;;;;6239302;23;20468;-67
2022/07/06 06:10:29;;;;;;;4.68;0.90;;;14.40;99.90;;;;;;6237097;23;20022;-67
2022/07/06 06:12:54;;;;;;;2.20;0.57;;;14.30;99.90;;;;;;6238806;23;20070;-66
2022/07/06 06:15:20;;;;;;;4.00;0.80;;;14.40;99.90;;;;;;6238614;23;20050;-67
2022/07/06 06:17:46;;;;;;;3.50;0.50;;;14.40;99.90;;;;;;6235511;23;20066;-67
2022/07/06 06:20:14;;;;;;;4.93;0.95;;;14.40;99.90;;;;;;6236767;23;20467;-67
2022/07/06 06:22:55;;;;;;;1.88;0.50;;;14.40;99.90;;;;;;6236296;23;20087;-67
2022/07/06 06:25:35;;;;;;;1.67;0.60;;;14.50;99.90;;;;;;6238691;23;20050;-67
2022/07/06 06:28:06;;;;;;;5.80;0.63;;;14.50;99.90;;;;;;6238229;23;20027;-67
2022/07/06 06:30:32;;;;;;;1.65;0.55;;;14.50;99.90;;;;;;6236481;23;20447;-67
2022/07/06 06:33:16;;;;;;;2.33;0.70;;;14.50;99.90;;;;;;6262306;22;20053;-67
2022/07/06 06:35:47;;;;;;;7.38;0.55;;;14.60;99.90;;;;;;6236304;22;20024;-66
2022/07/06 06:38:18;;;;;;;3.70;0.75;;;14.60;99.90;;;;;;6238867;23;20024;-67
2022/07/06 06:40:44;;;;;;;5.47;1.00;;;14.70;99.90;;;;;;6236260;23;20466;-67
2022/07/06 06:43:10;;;;;;;2.55;0.55;;;14.70;99.90;;;;;;6238392;23;20305;-67
2022/07/06 06:45:36;;;;;;;3.05;0.80;;;14.70;99.90;;;;;;6237972;22;20020;-67
2022/07/06 06:48:02;;;;;;;3.38;0.70;;;14.70;99.90;;;;;;6236787;23;20020;-66
2022/07/06 06:50:28;;;;;;;3.88;0.80;;;14.50;99.90;;;;;;6237678;23;20030;-67
2022/07/06 06:52:54;;;;;;;3.92;0.77;;;14.40;99.90;;;;;;6236522;23;20054;-66
2022/07/06 06:55:20;;;;;;;3.65;0.70;;;14.20;99.90;;;;;;6238068;23;20038;-67
2022/07/06 06:57:46;;;;;;;7.57;0.95;;;14.20;99.90;;;;;;6234817;23;20448;-67
2022/07/06 07:00:13;;;;;;;3.75;0.47;;;14.10;99.90;;;;;;6236002;23;20020;-66
2022/07/06 07:02:38;;;;;;;5.45;0.70;;;14.10;99.90;;;;;;6237176;23;20313;-67
2022/07/06 07:05:05;;;;;;;5.07;1.05;;;14.10;99.90;;;;;;6237545;23;20054;-67
2022/07/06 07:07:31;;;;;;;3.97;0.63;;;14.20;99.90;;;;;;6236353;23;20320;-66
2022/07/06 07:09:57;;;;;;;5.18;0.90;;;14.10;99.90;;;;;;6236966;23;20031;-67
2022/07/06 07:12:22;;;;;;;3.15;0.75;;;14.20;99.90;;;;;;6238563;22;20357;-67
2022/07/06 07:14:48;;;;;;;1.42;0.60;;;14.20;99.90;;;;;;6237023;23;20016;-67
2022/07/06 07:17:14;;;;;;;4.45;0.70;;;14.20;99.90;;;;;;6236508;23;20020;-66
2022/07/06 07:19:40;;;;;;;2.10;0.63;;;14.30;99.90;;;;;;6236802;23;20028;-67
2022/07/06 07:22:06;;;;;;;4.15;0.70;;;14.30;99.90;;;;;;6237430;23;20012;-67
2022/07/06 07:24:32;;;;;;;4.72;0.85;;;14.40;99.90;;;;;;6238476;23;20024;-67
2022/07/06 07:26:58;;;;;;;3.22;0.85;;;14.40;99.90;;;;;;6256729;22;20393;-67
2022/07/06 07:29:23;;;;;;;4.90;0.70;;;14.50;99.90;;;;;;6233643;23;20020;-67
2022/07/06 07:31:49;;;;;;;6.38;0.90;;;14.50;99.90;;;;;;6233744;23;20012;-67
2022/07/06 07:34:16;;;;;;;5.00;1.65;;;14.50;99.90;;;;;;6236355;23;20940;-67
2022/07/06 07:36:41;;;;;;;1.75;0.60;;;14.60;99.90;;;;;;6236176;23;20052;-67
2022/07/06 07:39:07;;;;;;;3.55;0.57;;;14.70;99.90;;;;;;6238049;23;20024;-67
2022/07/06 07:41:33;;;;;;;3.67;0.88;;;14.70;99.90;;;;;;6234460;23;20044;-67
2022/07/06 07:43:59;;;;;;;7.80;0.93;;;14.80;99.90;;;;;;6237269;23;20020;-67
2022/07/06 07:46:24;;;;;;;5.10;1.05;;;14.80;99.90;;;;;;6261791;22;20020;-67
2022/07/06 07:48:50;;;;;;;4.38;0.88;;;14.90;99.90;;;;;;6236439;23;20339;-67
2022/07/06 07:51:16;;;;;;;4.47;1.33;;;15.00;99.90;;;;;;6236581;23;20024;-67
2022/07/06 07:53:41;;;;;;;6.57;1.10;;;15.70;99.90;;;;;;6234822;23;20511;-67
2022/07/06 07:56:07;;;;;;;2.40;0.70;;;16.30;99.90;;;;;;6238553;23;20020;-67
2022/07/06 07:58:33;;;;;;;2.20;0.90;;;17.00;99.90;;;;;;6237188;23;20068;-68
2022/07/06 08:01:00;;;;;;;5.95;0.90;;;17.60;99.90;;;;;;6237013;23;20013;-68
2022/07/06 08:03:26;;;;;;;6.47;2.08;;;17.90;99.90;;;;;;6238443;23;20012;-68
2022/07/06 08:05:51;;;;;;;6.13;0.90;;;17.80;99.80;;;;;;6185258;23;20401;-68
2022/07/06 08:08:17;;;;;;;6.25;0.68;;;17.30;98.40;;;;;;6239341;23;20051;-68
2022/07/06 08:10:43;;;;;;;5.68;1.13;;;17.10;94.30;;;;;;6236474;23;20020;-67
2022/07/06 08:13:10;;;;;;;6.13;0.60;;;17.10;95.00;;;;;;6240360;23;20095;-68
2022/07/06 08:15:36;;;;;;;2.17;0.60;;;17.10;94.80;;;;;;6236867;23;20063;-68
2022/07/06 08:18:03;;;;;;;3.40;0.52;;;17.00;92.00;;;;;;6239633;23;20047;-68
2022/07/06 08:20:29;;;;;;;3.72;0.55;;;16.90;91.00;;;;;;6236981;23;20458;-68
2022/07/06 08:22:55;;;;;;;3.35;1.08;;;16.90;95.50;;;;;;6237030;23;20019;-68
2022/07/06 08:25:21;;;;;;;2.15;0.75;;;17.00;93.20;;;;;;6235699;23;20051;-67
2022/07/06 08:27:47;;;;;;;4.43;0.80;;;17.20;92.90;;;;;;6235504;23;20020;-68
2022/07/06 08:30:13;;;;;;;3.58;0.68;;;17.40;90.00;;;;;;6238023;23;20020;-67
2022/07/06 08:32:41;;;;;;;7.28;0.68;;;17.20;94.30;;;;;;6238459;23;20020;-68
2022/07/06 08:35:07;;;;;;;2.03;0.60;;;17.00;88.30;;;;;;6238210;23;20008;-68
2022/07/06 08:37:33;;;;;;;5.95;0.75;;;16.90;94.60;;;;;;6238822;23;20022;-68
2022/07/06 08:39:59;;;;;;;5.68;0.80;;;17.00;92.90;;;;;;6262257;22;20024;-67
2022/07/06 08:42:30;;;;;;;1.70;0.30;;;17.00;82.90;;;;;;6212600;23;20436;-68
2022/07/06 08:44:59;;;;;;;3.97;0.60;;;16.90;65.50;;;;;;6237259;23;20024;-68
2022/07/06 08:47:27;;;;;;;6.23;0.50;;;16.80;77.10;;;;;;6239477;23;20024;-67
2022/07/06 08:49:54;;;;;;;2.65;0.55;;;16.90;89.30;;;;;;6237293;23;20330;-68
2022/07/06 08:52:21;;;;;;;2.28;0.57;;;17.10;79.00;;;;;;6239721;23;20097;-68
2022/07/06 08:54:47;;;;;;;3.22;0.60;;;17.40;87.80;;;;;;6238429;23;20017;-68
2022/07/06 08:57:13;;;;;;;3.35;0.73;;;17.50;92.40;;;;;;6263030;22;20034;-68
2022/07/06 08:59:39;;;;;;;5.28;1.10;;;17.50;87.30;;;;;;6239805;23;20479;-68
2022/07/06 09:02:05;;;;;;;6.70;1.92;;;17.70;98.60;;;;;;6237729;23;20046;-68
2022/07/06 09:04:35;;;;;;;2.80;0.55;;;17.60;91.70;;;;;;6238092;23;20020;-68
2022/07/06 09:07:01;;;;;;;5.38;0.88;;;17.40;85.60;;;;;;6261346;22;20146;-68
2022/07/06 09:09:30;;;;;;;1.15;0.45;;;17.40;80.40;;;;;;6238019;23;20028;-68
2022/07/06 09:11:57;;;;;;;1.53;0.33;;;17.60;78.80;;;;;;6237491;23;20012;-67
2022/07/06 09:14:23;;;;;;;5.05;0.85;;;17.70;77.00;;;;;;6261229;22;20290;-68
2022/07/06 09:17:06;;;;;;;5.68;1.00;;;17.60;90.10;;;;;;6238079;23;20020;-68
2022/07/06 09:19:33;;;;;;;1.95;0.52;;;17.40;93.70;;;;;;6236186;23;20020;-69
2022/07/06 09:22:02;;;;;;;4.47;1.08;;;17.30;81.80;;;;;;6235775;23;20054;-68
2022/07/06 09:24:28;;;;;;;2.03;0.65;;;17.50;78.10;;;;;;6235123;23;20861;-67
2022/07/06 09:26:55;;;;;;;3.22;0.60;;;17.80;78.60;;;;;;6238666;22;20016;-68
2022/07/06 09:29:31;;;;;;;4.53;0.60;;;18.00;67.60;;;;;;6237523;23;20141;-68
2022/07/06 09:32:02;;;;;;;8.13;0.80;;;18.00;71.80;;;;;;6236260;23;20035;-68
2022/07/06 09:34:44;;;;;;;2.55;0.60;;;17.90;68.30;;;;;;6237037;23;20024;-68
2022/07/06 09:37:11;;;;;;;1.75;0.45;;;17.60;75.10;;;;;;6234343;23;20024;-68
2022/07/06 09:39:37;;;;;;;2.65;0.88;;;17.70;75.20;;;;;;6238896;23;20035;-68
2022/07/06 09:42:09;;;;;;;4.55;0.70;;;17.60;85.70;;;;;;6236953;23;20066;-68
2022/07/06 09:44:40;;;;;;;5.18;0.73;;;17.70;80.20;;;;;;6238653;23;20526;-68
2022/07/06 09:47:10;;;;;;;2.05;0.65;;;17.70;83.10;;;;;;6236162;23;20043;-68
2022/07/06 09:49:37;;;;;;;5.60;0.82;;;17.80;58.80;;;;;;6237420;23;20066;-68
2022/07/06 09:52:06;;;;;;;3.58;0.68;;;18.00;72.50;;;;;;6239064;23;20012;-68
2022/07/06 09:54:34;;;;;;;1.25;0.60;;;18.10;67.20;;;;;;6237949;22;20074;-69
2022/07/06 09:57:00;;;;;;;3.63;0.47;;;18.00;69.80;;;;;;6238291;22;20054;-68
2022/07/06 09:59:28;;;;;;;1.55;0.50;;;18.00;68.50;;;;;;6238002;23;20319;-68
2022/07/06 10:01:56;;;;;;;1.50;0.68;;;18.00;61.70;;;;;;6261429;22;20458;-68
2022/07/06 10:04:23;;;;;;;1.42;0.47;;;18.10;51.70;;;;;;6236542;23;20024;-67
2022/07/06 10:06:50;;;;;;;6.45;0.68;;;18.20;50.10;;;;;;6236258;23;20825;-68
2022/07/06 10:09:17;;;;;;;2.40;0.40;;;18.40;54.90;;;;;;6237233;23;20027;-68
2022/07/06 10:11:53;;;;;;;3.53;0.57;;;18.40;62.40;;;;;;6237610;23;20008;-68
2022/07/06 10:14:24;;;;;;;3.10;0.55;;;18.50;63.50;;;;;;6236676;23;20371;-68
2022/07/06 10:16:51;;;;;;;3.78;0.90;;;18.60;61.00;;;;;;6237398;23;20390;-68
2022/07/06 10:19:19;;;;;;;1.25;0.43;;;18.60;58.70;;;;;;6238047;23;20059;-69
2022/07/06 10:21:46;;;;;;;4.68;0.65;;;18.50;54.20;;;;;;6237784;23;20062;-69
2022/07/06 10:24:13;;;;;;;2.75;0.80;;;18.40;51.00;;;;;;6234527;23;20200;-69
2022/07/06 10:26:40;;;;;;;5.00;0.98;;;18.40;70.00;;;;;;6233531;23;20016;-69
2022/07/06 10:29:06;;;;;;;2.97;0.60;;;18.40;76.40;;;;;;6231296;23;20024;-69
2022/07/06 10:31:36;;;;;;;2.53;0.75;;;18.40;71.10;;;;;;6235400;23;20035;-69
2022/07/06 10:34:04;;;;;;;6.32;0.73;;;18.40;69.40;;;;;;6231831;23;20102;-69
2022/07/06 10:36:30;;;;;;;5.65;0.60;;;18.40;58.10;;;;;;6233822;23;20016;-68
2022/07/06 10:38:57;;;;;;;1.85;0.57;;;18.40;65.60;;;;;;6232155;23;20078;-68
2022/07/06 10:41:35;;;;;;;2.83;1.02;;;18.20;80.40;;;;;;6232620;23;20091;-68
2022/07/06 10:44:18;;;;;;;4.28;0.95;;;18.40;87.60;;;;;;6235068;23;20028;-69
2022/07/06 10:46:52;;;;;;;5.25;0.73;;;18.50;84.70;;;;;;6234213;23;20477;-69
2022/07/06 10:49:18;;;;;;;3.97;1.02;;;18.60;79.60;;;;;;6235184;22;20339;-68
2022/07/06 10:51:44;;;;;;;2.30;0.50;;;18.60;82.80;;;;;;6235627;23;20466;-68
2022/07/06 10:54:10;;;;;;;1.35;0.38;;;18.60;70.90;;;;;;6211999;23;20020;-68
2022/07/06 10:57:03;;;;;;;3.92;0.90;;;18.50;77.40;;;;;;6238364;23;20024;-68
2022/07/06 10:59:29;;;;;;;2.03;0.73;;;18.30;89.20;;;;;;6236036;22;20020;-68
2022/07/06 11:02:15;;;;;;;2.53;0.60;;;18.00;88.00;;;;;;6234914;23;20465;-69
2022/07/06 11:04:45;;;;;;;1.98;0.60;;;17.70;91.60;;;;;;6238155;22;20138;-69
2022/07/06 11:07:14;;;;;;;6.50;0.73;;;17.80;98.90;;;;;;6233548;23;20347;-68
2022/07/06 11:09:47;;;;;;;3.05;0.50;;;18.00;92.70;;;;;;6232879;23;20035;-69
2022/07/06 11:12:18;;;;;;;2.72;0.73;;;18.30;76.60;;;;;;6234100;23;20498;-69
2022/07/06 11:14:44;;;;;;;3.55;0.80;;;18.50;91.30;;;;;;6237980;23;20008;-68
2022/07/06 11:17:11;;;;;;;2.40;0.60;;;18.80;70.50;;;;;;6235652;23;20091;-68
2022/07/06 11:20:09;;;;;;;6.95;0.73;;;18.90;71.30;;;;;;6235050;23;20455;-69
2022/07/06 11:22:37;;;;;;;1.42;0.50;;;18.60;74.70;;;;;;6235125;23;20334;-68
2022/07/06 11:25:04;;;;;;;3.67;0.55;;;18.30;63.40;;;;;;6233755;23;20091;-69
2022/07/06 11:27:30;;;;;;;4.25;0.82;;;18.20;78.80;;;;;;6209466;23;20445;-69
2022/07/06 11:29:57;;;;;;;3.03;0.70;;;18.20;71.90;;;;;;6236437;23;20051;-69
2022/07/06 11:32:25;;;;;;;2.70;1.00;;;18.20;77.70;;;;;;6236906;23;20459;-69
2022/07/06 11:34:51;;;;;;;3.92;0.80;;;18.30;88.50;;;;;;6209743;23;20051;-69
2022/07/06 11:37:18;;;;;;;3.63;0.82;;;18.50;84.10;;;;;;6236758;23;20332;-69
2022/07/06 11:39:45;;;;;;;3.25;0.90;;;18.50;70.90;;;;;;6237211;23;20031;-69
2022/07/06 11:42:14;;;;;;;2.97;0.60;;;18.50;75.40;;;;;;6228807;23;20531;-68
2022/07/06 11:44:41;;;;;;;2.05;0.63;;;18.40;66.70;;;;;;6236234;23;20051;-69
2022/07/06 11:47:08;;;;;;;2.25;0.40;;;18.60;69.40;;;;;;6208438;23;20027;-69
2022/07/06 11:49:38;;;;;;;1.73;0.60;;;18.60;59.90;;;;;;6238332;23;20016;-69
2022/07/06 11:52:07;;;;;;;;;;;18.40;62.90;;;;;;6238631;23;20038;-68
2022/07/06 11:54:33;;;;;;;4.05;0.82;;;18.20;62.50;;;;;;6238490;23;19931;-68
2022/07/06 11:56:59;;;;;;;3.90;1.02;;;18.20;74.90;;;;;;6239362;23;20443;-69
2022/07/06 11:59:28;;;;;;;5.22;0.88;;;18.40;80.20;;;;;;6238132;23;20034;-68
2022/07/06 12:02:10;;;;;;;2.58;0.63;;;18.70;71.70;;;;;;6239121;23;20020;-69
2022/07/06 12:04:43;;;;;;;3.58;0.63;;;18.80;76.40;;;;;;6237961;23;20020;-68
2022/07/06 12:07:16;;;;;;;1.92;0.63;;;19.00;62.60;;;;;;6211267;23;20016;-68
2022/07/06 12:09:45;;;;;;;4.00;0.63;;;19.20;65.50;;;;;;6212391;23;20024;-68
2022/07/06 12:12:12;;;;;;;1.40;0.60;;;19.10;47.90;;;;;;6237905;23;20020;-67
2022/07/06 12:14:40;;;;;;;4.65;0.70;;;19.00;57.30;;;;;;6239055;23;20339;-68
2022/07/06 12:17:07;;;;;;;6.70;0.88;;;18.90;65.10;;;;;;6239234;23;20074;-68
2022/07/06 12:19:35;;;;;;;1.13;0.70;;;19.10;67.90;;;;;;6240291;23;20067;-69
2022/07/06 12:22:02;;;;;;;2.22;0.40;;;19.30;42.20;;;;;;6209933;23;20347;-68
2022/07/06 12:24:32;;;;;;;1.75;0.80;;;19.30;26.60;;;;;;6238569;23;20027;-69
2022/07/06 12:27:13;;;;;;;1.55;0.50;;;19.10;43.60;;;;;;6211076;23;20028;-68
2022/07/06 12:29:39;;;;;;;5.63;0.65;;;18.90;57.50;;;;;;6238562;23;20027;-68
2022/07/06 12:32:06;;;;;;;3.60;0.80;;;18.90;45.90;;;;;;6238891;23;20443;-68
2022/07/06 12:34:35;;;;;;;3.58;1.10;;;19.00;49.20;;;;;;6211392;23;20142;-69
2022/07/06 12:37:07;;;;;;;2.30;0.93;;;19.00;41.30;;;;;;6239878;23;20020;-69
2022/07/06 12:39:42;;;;;;;2.97;0.70;;;19.00;45.20;;;;;;6211310;23;20331;-68
2022/07/06 12:42:08;;;;;;;3.88;0.50;;;19.10;63.60;;;;;;6236461;23;20020;-68
2022/07/06 12:44:43;;;;;;;3.28;0.57;;;19.20;43.10;;;;;;6184709;23;20084;-68
2022/07/06 12:47:10;;;;;;;1.55;0.45;;;19.20;40.30;;;;;;6207117;23;20020;-68
2022/07/06 12:49:38;;;;;;;2.10;0.70;;;19.40;44.50;;;;;;6209344;23;20066;-68
2022/07/06 12:52:25;;;;;;;1.70;0.50;;;19.50;48.80;;;;;;6235125;23;20023;-68